Time;durP1;ratioP1;P1;durP2;ratioP2;P2;SDS_P1;SDS_P2;PMS_P1;PMS_P2;Temp;Humidity;BMP_temperature;BMP_pressure;BME280_temperature;BME280_humidity;BME280_pressure;Samples;Min_cycle;Max_cycle;Signal;HPM_P1;HPM_P2
2022/01/29 00:00:19;;;;;;;8.65;4.55;;;;;;;5.71;65.02;101823.78;5131681;27;20041;-93
2022/01/29 00:02:54;;;;;;;7.43;4.53;;;;;;;5.69;64.55;101797.75;5099392;27;20035;-94
2022/01/29 00:05:38;;;;;;;7.32;4.68;;;;;;;5.75;64.72;101812.03;5099912;27;20025;-93
2022/01/29 00:08:30;;;;;;;6.78;4.22;;;;;;;5.80;64.56;101823.72;5099001;27;20028;-93
2022/01/29 00:11:17;;;;;;;7.82;4.68;;;;;;;5.78;64.75;101823.59;5099086;27;20489;-94
2022/01/29 00:14:06;;;;;;;7.30;4.60;;;;;;;5.74;64.88;101833.56;5115967;27;20023;-94
2022/01/29 00:16:51;;;;;;;6.75;4.15;;;;;;;5.76;64.79;101829.38;5095122;28;20402;-93
2022/01/29 00:22:57;;;;;;;6.95;4.30;;;;;;;5.54;65.01;101804.13;5132807;27;20441;-94
2022/01/29 00:25:41;;;;;;;6.25;4.10;;;;;;;5.39;64.92;101775.16;5099829;27;20042;-94
2022/01/29 00:28:07;;;;;;;6.72;3.97;;;;;;;5.47;65.13;101802.66;5105220;27;20027;-95
2022/01/29 00:30:42;;;;;;;7.15;4.40;;;;;;;5.78;64.73;101843.38;5136230;27;20031;-94
2022/01/29 00:33:15;;;;;;;6.93;4.43;;;;;;;5.58;64.97;101815.69;5110457;27;20027;-95
2022/01/29 00:35:41;;;;;;;7.07;4.15;;;;;;;5.59;64.68;101820.09;5091954;28;20048;-93
2022/01/29 00:38:25;;;;;;;6.97;4.35;;;;;;;5.84;65.09;101856.91;5096023;28;20039;-95
2022/01/29 00:41:17;;;;;;;7.07;3.80;;;;;;;5.76;64.97;101860.47;5097671;28;20034;-94
2022/01/29 00:43:50;;;;;;;6.60;4.18;;;;;;;5.51;64.97;101816.81;5077689;28;20052;-94
2022/01/29 00:46:15;;;;;;;6.47;4.13;;;;;;;5.58;65.10;101823.47;5064318;28;20036;-94
2022/01/29 00:48:41;;;;;;;7.65;4.13;;;;;;;5.79;64.75;101861.69;5073426;28;20039;-94
2022/01/29 00:51:07;;;;;;;7.63;4.13;;;;;;;5.56;65.07;101833.69;5084253;28;20031;-95
2022/01/29 00:53:33;;;;;;;6.80;4.20;;;;;;;5.24;64.69;101766.00;5099095;28;20062;-94
2022/01/29 00:56:06;;;;;;;6.55;4.20;;;;;;;4.85;65.04;101712.41;5085856;28;20042;-94
2022/01/29 00:58:32;;;;;;;6.53;4.30;;;;;;;5.34;64.72;101789.38;5084017;28;20120;-95
2022/01/29 01:01:03;;;;;;;6.68;4.00;;;;;;;5.80;64.67;101862.59;5100367;28;20030;-96
2022/01/29 01:03:30;;;;;;;5.90;3.63;;;;;;;4.77;64.54;101692.69;5082206;28;20479;-95
2022/01/29 01:05:55;;;;;;;6.85;4.07;;;;;;;4.92;64.85;101708.69;5083861;28;20028;-94
2022/01/29 01:08:26;;;;;;;5.90;3.88;;;;;;;4.86;64.76;101693.50;5089460;28;20038;-95
2022/01/29 01:11:06;;;;;;;6.90;4.18;;;;;;;5.74;64.58;101860.38;5103294;28;20045;-94
2022/01/29 01:13:43;;;;;;;5.97;4.00;;;;;;;5.83;64.64;101866.38;5080633;28;20040;-95
2022/01/29 01:16:17;;;;;;;;;;;;;;;5.86;64.72;101860.56;5096295;28;20024;-94
2022/01/29 01:18:53;;;;;;;4.35;3.30;;;;;;;5.26;64.73;101762.78;5086644;28;19912;-95
2022/01/29 01:21:37;;;;;;;6.63;3.70;;;;;;;4.87;64.90;101698.84;5095689;28;20019;-95
2022/01/29 01:24:48;;;;;;;6.47;3.75;;;;;;;5.78;65.20;101856.34;5095824;28;20116;-94
2022/01/29 01:27:23;;;;;;;5.55;3.75;;;;;;;5.72;64.93;101857.63;5093996;28;20896;-95
2022/01/29 01:29:52;;;;;;;6.80;3.95;;;;;;;5.78;65.03;101864.13;5079136;28;20028;-94
2022/01/29 01:32:23;;;;;;;6.72;4.43;;;;;;;5.75;65.15;101859.59;5087663;28;20028;-96
2022/01/29 01:34:55;;;;;;;5.93;4.03;;;;;;;5.77;64.92;101870.09;5079088;28;20518;-94
2022/01/29 01:37:38;;;;;;;5.55;3.80;;;;;;;5.10;64.80;101744.00;5108619;28;20074;-96
2022/01/29 01:40:24;;;;;;;6.45;3.88;;;;;;;4.95;64.51;101720.22;5109350;28;20517;-95
2022/01/29 01:43:45;;;;;;;9.93;4.13;;;;;;;5.81;64.80;101874.78;5076976;28;20024;-94
2022/01/29 01:46:11;;;;;;;6.97;3.97;;;;;;;5.75;64.77;101869.03;5100397;28;20031;-95
2022/01/29 01:49:00;;;;;;;5.90;3.75;;;;;;;5.80;64.86;101872.94;5075003;28;20047;-95
2022/01/29 01:51:55;;;;;;;7.82;3.78;;;;;;;5.81;64.90;101873.09;5075510;28;20135;-95
2022/01/29 01:54:46;;;;;;;8.57;4.68;;;;;;;5.83;64.65;101878.44;5109946;28;20031;-95
2022/01/29 02:03:47;;;;;;;6.07;3.80;;;;;;;5.71;64.76;101873.97;5113235;28;20479;-95
2022/01/29 02:06:52;;;;;;;7.03;4.00;;;;;;;5.79;64.50;101885.00;5080227;28;20474;-95
2022/01/29 02:09:52;;;;;;;5.35;3.45;;;;;;;5.82;64.84;101890.50;5102163;28;20042;-95
2022/01/29 02:15:55;;;;;;;5.78;3.72;;;;;;;5.68;65.03;101883.13;5116404;28;20074;-95
2022/01/29 02:19:10;;;;;;;8.85;3.63;;;;;;;5.76;65.14;101902.88;5085702;28;20035;-95
2022/01/29 02:21:44;;;;;;;6.43;3.97;;;;;;;5.56;64.65;101872.53;5116553;28;20031;-96
2022/01/29 02:24:26;;;;;;;6.18;3.70;;;;;;;5.51;64.54;101866.03;5099222;28;20108;-95
2022/01/29 02:27:10;;;;;;;5.57;3.55;;;;;;;5.75;64.48;101910.50;5114831;28;20553;-96
2022/01/29 02:29:52;;;;;;;5.90;3.85;;;;;;;5.79;64.72;101905.75;5096095;28;20063;-94
2022/01/29 02:32:22;;;;;;;6.05;3.75;;;;;;;5.67;64.77;101902.03;5078551;28;20024;-94
2022/01/29 02:35:19;;;;;;;5.40;3.50;;;;;;;5.76;64.74;101913.25;5077622;28;20032;-94
2022/01/29 02:38:51;;;;;;;5.72;3.47;;;;;;;5.80;64.48;101911.84;5106682;28;20090;-94
2022/01/29 02:45:08;;;;;;;5.97;3.63;;;;;;;5.72;64.85;101924.13;5115268;28;20153;-95
2022/01/29 02:47:56;;;;;;;4.78;3.47;;;;;;;5.77;65.17;101917.66;5099049;28;20073;-94
2022/01/29 02:50:30;;;;;;;4.85;3.50;;;;;;;5.58;64.79;101899.50;5093706;28;20035;-95
2022/01/29 02:53:08;;;;;;;5.45;3.70;;;;;;;5.74;64.94;101914.78;5082154;28;20052;-95
2022/01/29 02:55:42;;;;;;;4.93;3.40;;;;;;;5.75;64.64;101926.06;5080364;28;20032;-94
2022/01/29 02:58:29;;;;;;;4.72;3.33;;;;;;;5.71;65.12;101920.63;5106748;28;20049;-94
2022/01/29 03:01:21;;;;;;;6.28;3.83;;;;;;;5.80;65.22;101924.78;5098499;28;20034;-94
2022/01/29 03:03:56;;;;;;;5.00;3.47;;;;;;;5.55;64.61;101901.81;5117701;28;20508;-95
2022/01/29 03:06:23;;;;;;;5.32;3.58;;;;;;;5.60;65.34;101912.59;5081137;28;20034;-94
2022/01/29 03:09:00;;;;;;;5.05;3.28;;;;;;;5.52;64.92;101906.72;5091684;28;20059;-94
2022/01/29 03:11:57;;;;;;;;;;;;;;;5.77;65.06;101946.16;5100931;28;20038;-95
2022/01/29 03:14:35;;;;;;;5.40;3.40;;;;;;;5.75;65.02;101942.53;5100665;28;19923;-93
2022/01/29 03:17:12;;;;;;;5.63;3.70;;;;;;;5.49;65.13;101909.94;5100957;28;20491;-94
2022/01/29 03:19:43;;;;;;;5.15;3.38;;;;;;;5.54;65.41;101910.34;5092347;28;20032;-95
2022/01/29 03:22:26;;;;;;;6.25;3.53;;;;;;;5.72;65.09;101940.56;5116492;28;20083;-96
2022/01/29 03:25:10;;;;;;;6.28;3.70;;;;;;;5.54;65.26;101905.16;5088605;28;20028;-95
2022/01/29 03:27:37;;;;;;;7.72;3.60;;;;;;;5.41;64.94;101873.72;5078931;28;20032;-93
2022/01/29 03:30:38;;;;;;;6.43;3.60;;;;;;;5.77;64.92;101935.78;5093739;28;20035;-93
2022/01/29 03:36:26;;;;;;;4.60;3.28;;;;;;;5.56;65.09;101907.91;5113990;28;20062;-92
2022/01/29 03:39:25;;;;;;;5.68;3.30;;;;;;;5.80;64.97;101945.53;5079529;28;20035;-92
2022/01/29 03:41:52;;;;;;;5.43;3.40;;;;;;;5.62;64.93;101922.34;5086980;28;20031;-89
2022/01/29 03:44:17;;;;;;;5.43;3.60;;;;;;;5.73;65.05;101949.25;5105899;28;20054;-92
2022/01/29 03:46:53;;;;;;;4.68;3.30;;;;;;;5.39;65.41;101907.25;5117921;28;20035;-93
2022/01/29 03:49:48;;;;;;;5.72;3.30;;;;;;;5.74;65.66;101965.72;5096029;28;20023;-92
2022/01/29 03:52:15;;;;;;;5.22;3.45;;;;;;;5.57;64.79;101930.47;5095260;28;20035;-92
2022/01/29 03:54:55;;;;;;;5.63;3.58;;;;;;;5.59;65.18;101929.84;5095772;28;20027;-91
2022/01/29 03:57:40;;;;;;;5.45;3.42;;;;;;;5.78;64.84;101960.03;5076482;28;20410;-92
2022/01/29 04:00:16;;;;;;;5.88;3.42;;;;;;;5.63;64.65;101937.13;5075511;28;20036;-92
2022/01/29 04:02:51;;;;;;;5.38;3.60;;;;;;;5.57;64.70;101914.94;5073811;28;20028;-92
2022/01/29 04:06:11;;;;;;;7.00;3.78;;;;;;;5.82;64.67;101946.59;5062112;28;20527;-95
2022/01/29 04:08:42;;;;;;;5.90;3.55;;;;;;;5.76;64.40;101948.59;5097389;28;20390;-93
2022/01/29 04:11:14;;;;;;;6.82;3.70;;;;;;;5.51;64.53;101921.34;5078220;28;20024;-93
2022/01/29 04:13:54;;;;;;;5.05;3.55;;;;;;;5.66;64.96;101937.41;5097645;28;20078;-95
2022/01/29 04:16:53;;;;;;;5.85;3.70;;;;;;;5.78;64.71;101954.84;5080180;28;20031;-95
2022/01/29 04:19:21;;;;;;;7.88;3.85;;;;;;;5.77;64.49;101951.34;5090053;28;20027;-93
2022/01/29 04:21:57;;;;;;;4.97;3.47;;;;;;;5.55;64.71;101925.16;5096652;28;20057;-94
2022/01/29 04:24:32;;;;;;;4.68;3.50;;;;;;;5.77;64.95;101960.81;5100406;28;20031;-96
2022/01/29 04:27:09;;;;;;;5.63;3.42;;;;;;;5.65;65.13;101952.81;5070049;28;20031;-96
2022/01/29 04:29:56;;;;;;;6.35;3.85;;;;;;;5.64;65.01;101957.09;5098595;28;20040;-95
2022/01/29 04:35:04;;;;;;;5.45;3.40;;;;;;;5.75;64.85;101980.50;5113480;28;20015;-95
2022/01/29 04:37:31;;;;;;;6.07;3.70;;;;;;;5.68;64.32;101966.97;5084670;28;20067;-95
2022/01/29 04:40:23;;;;;;;4.68;3.22;;;;;;;5.79;65.37;101988.69;5070928;28;20040;-93
2022/01/29 04:42:52;;;;;;;6.60;3.35;;;;;;;5.72;64.94;101986.31;5122958;28;20044;-96
2022/01/29 04:45:26;;;;;;;5.15;3.35;;;;;;;5.70;65.36;101977.47;5115829;28;20106;-96
2022/01/29 04:48:07;;;;;;;5.72;3.67;;;;;;;5.51;64.77;101938.59;5090818;28;20035;-96
2022/01/29 04:51:05;;;;;;;4.22;3.20;;;;;;;5.77;64.76;101987.63;5080659;28;20031;-96
2022/01/29 04:53:35;;;;;;;6.20;3.70;;;;;;;5.54;64.54;101953.50;5128966;28;20114;-96
2022/01/29 04:56:09;;;;;;;5.10;3.40;;;;;;;5.75;65.20;101993.44;5108185;28;20036;-96
2022/01/29 04:59:16;;;;;;;5.90;3.38;;;;;;;5.76;64.92;101991.00;5116852;28;20030;-96
2022/01/29 05:02:29;;;;;;;4.43;3.38;;;;;;;5.78;64.56;101984.28;5121619;28;20103;-96
2022/01/29 05:05:02;;;;;;;6.43;3.58;;;;;;;5.64;65.01;101962.25;5123267;28;20050;-95
2022/01/29 05:07:33;;;;;;;6.63;3.50;;;;;;;5.74;64.93;101982.19;5105451;28;20035;-95
2022/01/29 05:10:05;;;;;;;5.97;3.70;;;;;;;5.81;64.65;101986.25;5099079;28;20036;-96
2022/01/29 05:27:22;;;;;;;5.95;3.65;;;;;;;4.82;64.50;101833.72;4980475;28;20055;-96
2022/01/29 05:29:51;;;;;;;5.80;3.80;;;;;;;5.85;64.38;102004.81;4955123;29;20075;-95
2022/01/29 05:32:23;;;;;;;5.78;3.50;;;;;;;4.82;64.61;101846.66;4956359;28;20063;-94
2022/01/29 05:38:11;;;;;;;7.55;4.15;;;;;;;5.58;64.51;102003.16;4973429;28;20165;-92
2022/01/29 05:40:59;;;;;;;6.43;4.13;;;;;;;5.74;64.35;102034.03;4937869;29;20039;-92
2022/01/29 05:46:28;;;;;;;7.65;4.13;;;;;;;5.55;64.55;102001.97;4964277;28;20323;-93
2022/01/29 05:52:19;;;;;;;8.10;4.07;;;;;;;5.72;64.68;102035.56;4959922;29;20121;-94
2022/01/29 05:54:51;;;;;;;5.75;3.85;;;;;;;5.62;64.82;102019.91;4955014;28;20514;-95
2022/01/29 05:57:19;;;;;;;8.05;4.05;;;;;;;5.27;64.98;101982.16;4947110;28;20526;-95
2022/01/29 06:00:00;;;;;;;8.00;3.90;;;;;;;5.54;64.61;102034.72;4947101;28;20031;-93
2022/01/29 06:02:41;;;;;;;7.55;4.10;;;;;;;5.64;64.84;102034.81;4968092;28;20034;-93
2022/01/29 06:05:14;;;;;;;6.80;3.75;;;;;;;5.72;64.53;102044.22;4964007;28;20391;-95
2022/01/29 06:07:45;;;;;;;6.57;4.10;;;;;;;5.69;64.79;102048.22;4985117;28;20041;-96
2022/01/29 06:10:11;;;;;;;6.90;4.22;;;;;;;5.70;64.54;102053.53;4981297;28;20489;-95
2022/01/29 06:13:09;;;;;;;7.32;4.15;;;;;;;5.70;64.58;102052.63;4949885;28;20030;-95
2022/01/29 06:15:52;;;;;;;8.35;4.55;;;;;;;5.73;64.50;102050.31;4927227;28;20046;-94
2022/01/29 06:18:42;;;;;;;9.48;4.63;;;;;;;5.74;64.98;102054.75;4943415;28;20027;-91
2022/01/29 06:21:21;;;;;;;8.30;4.13;;;;;;;5.61;64.55;102041.38;4946704;28;20046;-96
2022/01/29 06:24:28;;;;;;;6.30;3.78;;;;;;;5.77;64.64;102067.09;4960805;28;20039;-96
2022/01/29 06:27:10;;;;;;;7.07;4.32;;;;;;;5.51;64.44;102043.13;4962929;28;20406;-92
2022/01/29 06:29:38;;;;;;;6.38;3.78;;;;;;;5.32;64.74;102016.25;4939617;28;20521;-88
2022/01/29 06:32:05;;;;;;;5.82;3.60;;;;;;;5.38;64.61;102023.69;4930436;28;20062;-87
2022/01/29 06:34:49;;;;;;;5.93;4.05;;;;;;;5.74;64.46;102079.78;4936181;28;20031;-90
2022/01/29 06:37:22;;;;;;;7.78;4.10;;;;;;;5.65;64.84;102070.34;4965324;28;20069;-88
2022/01/29 06:40:14;;;;;;;6.35;4.07;;;;;;;5.69;64.60;102072.47;4944732;28;20041;-92
2022/01/29 06:42:43;;;;;;;5.40;3.80;;;;;;;5.62;64.85;102062.28;4939860;29;20066;-91
2022/01/29 06:45:11;;;;;;;7.38;4.03;;;;;;;5.47;64.80;102030.63;4942026;28;20054;-91
2022/01/29 06:48:02;;;;;;;7.72;4.38;;;;;;;5.77;64.55;102074.84;4943074;28;20034;-94
2022/01/29 06:51:01;;;;;;;7.55;4.47;;;;;;;5.81;64.43;102074.38;4941600;28;20047;-87
2022/01/29 06:53:41;;;;;;;8.13;4.68;;;;;;;5.62;64.88;102048.41;4957334;28;20431;-91
2022/01/29 06:59:42;;;;;;;5.32;3.60;;;;;;;5.37;65.39;102022.75;4974074;28;20053;-90
2022/01/29 07:02:08;;;;;;;7.13;4.22;;;;;;;5.62;65.00;102062.28;4942474;28;20588;-90
2022/01/29 07:04:39;;;;;;;4.82;3.65;;;;;;;5.55;65.31;102041.75;4943337;29;20090;-93
2022/01/29 07:07:20;;;;;;;7.13;3.97;;;;;;;5.40;65.40;102019.56;4925180;29;20042;-92
2022/01/29 07:09:50;;;;;;;5.80;3.60;;;;;;;5.29;65.03;102013.34;4944354;29;20031;-95
2022/01/29 07:12:25;;;;;;;6.07;3.72;;;;;;;5.71;65.29;102088.13;4957690;28;20475;-94
2022/01/29 07:15:00;;;;;;;5.13;3.60;;;;;;;5.74;65.44;102090.13;4952550;28;20031;-94
2022/01/29 07:17:58;;;;;;;6.88;3.55;;;;;;;5.56;65.74;102097.06;4946042;28;20491;-94
2022/01/29 07:20:24;;;;;;;9.55;4.32;;;;;;;5.21;65.41;102003.97;4955607;28;20054;-93
2022/01/29 07:22:51;;;;;;;5.55;3.67;;;;;;;5.20;65.36;102036.69;4944524;28;20113;-92
2022/01/29 07:25:32;;;;;;;5.45;3.60;;;;;;;5.42;65.74;102054.28;4941591;28;20031;-92
2022/01/29 07:31:59;;;;;;;6.85;3.72;;;;;;;5.53;65.99;102091.59;4975211;28;20054;-91
2022/01/29 07:34:25;;;;;;;6.60;3.58;;;;;;;5.55;66.36;102096.16;4959484;28;20035;-94
2022/01/29 07:37:19;;;;;;;7.70;3.60;;;;;;;5.68;65.69;102103.41;4943335;28;20027;-94
2022/01/29 07:39:45;;;;;;;8.07;3.63;;;;;;;5.72;65.59;102098.66;4986691;28;20037;-94
2022/01/29 07:42:18;;;;;;;6.70;3.95;;;;;;;5.45;65.76;102071.03;4949359;28;20031;-96
2022/01/29 07:44:59;;;;;;;6.32;3.90;;;;;;;5.75;65.28;102112.69;4951632;28;20031;-93
2022/01/29 07:47:52;;;;;;;6.85;4.00;;;;;;;5.83;65.24;102111.72;4942965;28;20065;-94
2022/01/29 07:50:27;;;;;;;6.13;3.90;;;;;;;5.71;65.26;102107.22;4941892;28;20054;-93
2022/01/29 07:53:02;;;;;;;6.43;3.80;;;;;;;5.74;65.46;102106.59;4954273;28;20034;-94
2022/01/29 07:55:52;;;;;;;5.47;3.90;;;;;;;5.84;64.82;102121.31;4942161;28;20524;-94
2022/01/29 07:58:22;;;;;;;6.20;3.90;;;;;;;5.84;65.27;102124.84;4962951;28;20038;-95
2022/01/29 08:03:32;;;;;;;6.75;4.30;;;;;;;4.96;65.09;101988.66;5037950;23;20514;-88
2022/01/29 08:06:00;;;;;;;6.30;3.78;;;;;;;5.87;65.17;102138.09;4969583;28;20018;-93
2022/01/29 08:08:46;;;;;;;6.82;4.10;;;;;;;5.87;64.91;102134.59;4977769;28;20034;-95
2022/01/29 08:24:28;;;;;;;5.78;3.70;;;;;;;5.87;64.91;102168.28;4949950;28;20102;-93
2022/01/29 08:26:54;;;;;;;5.68;4.10;;;;;;;5.40;65.24;102098.19;4947920;29;20043;-92
2022/01/29 08:29:30;;;;;;;6.28;3.97;;;;;;;5.23;65.03;102055.13;4956957;28;20070;-94
2022/01/29 08:31:58;;;;;;;6.78;4.30;;;;;;;5.87;65.19;102158.81;4934921;29;20491;-95
2022/01/29 08:34:25;;;;;;;6.38;3.75;;;;;;;4.94;64.80;101995.38;4924601;29;20035;-93
2022/01/29 08:36:54;;;;;;;5.82;3.67;;;;;;;5.90;65.15;102166.91;4925703;29;20042;-96
2022/01/29 08:39:27;;;;;;;6.45;4.00;;;;;;;5.05;65.15;102014.53;4929356;29;20035;-95
2022/01/29 08:41:57;;;;;;;5.45;3.58;;;;;;;5.85;65.21;102170.72;4941347;28;20026;-94
2022/01/29 08:44:58;;;;;;;5.40;3.67;;;;;;;5.79;65.30;102189.97;4962362;28;20025;-94
2022/01/29 08:47:59;;;;;;;5.45;3.58;;;;;;;5.94;65.06;102186.25;4928914;29;20027;-93
2022/01/29 08:50:25;;;;;;;6.43;4.05;;;;;;;5.74;64.89;102152.34;4927269;29;20126;-94
2022/01/29 08:52:50;;;;;;;5.32;3.63;;;;;;;5.85;64.64;102156.84;4922781;29;20062;-84
2022/01/29 08:55:24;;;;;;;5.70;3.92;;;;;;;5.75;64.85;102146.38;4936261;29;20038;-90
2022/01/29 08:58:08;;;;;;;7.13;3.90;;;;;;;5.82;65.50;102174.69;4944712;29;20584;-89
2022/01/29 09:00:38;;;;;;;6.20;3.80;;;;;;;5.66;65.32;102134.34;4951320;28;20036;-91
2022/01/29 09:03:08;;;;;;;5.43;3.92;;;;;;;5.42;65.24;102101.84;4901989;29;20024;-94
2022/01/29 09:05:47;;;;;;;6.00;3.50;;;;;;;5.83;65.65;102173.94;4949507;28;20412;-93
2022/01/29 09:08:21;;;;;;;7.18;3.78;;;;;;;5.79;66.09;102177.00;4937007;29;20023;-92
2022/01/29 09:10:47;;;;;;;6.18;3.90;;;;;;;5.62;65.81;102154.66;4918812;29;20069;-92
2022/01/29 09:13:16;;;;;;;6.00;4.00;;;;;;;5.57;65.80;102138.69;4902062;29;20070;-94
2022/01/29 09:15:43;;;;;;;6.18;3.85;;;;;;;5.42;66.39;102126.81;4917295;28;20046;-90
2022/01/29 09:18:11;;;;;;;7.43;3.92;;;;;;;5.37;66.22;102133.25;4933592;29;20039;-89
2022/01/29 09:20:41;;;;;;;5.55;3.65;;;;;;;5.40;66.19;102152.59;4911189;29;20038;-90
2022/01/29 09:23:13;;;;;;;5.32;3.50;;;;;;;5.28;66.75;102135.84;4920977;29;20541;-88
2022/01/29 09:25:40;;;;;;;5.13;3.50;;;;;;;5.33;66.64;102139.78;4952017;29;20735;-90
2022/01/29 09:28:08;;;;;;;6.43;4.10;;;;;;;5.61;66.58;102173.53;4920414;29;20054;-89
2022/01/29 09:30:35;;;;;;;5.97;4.00;;;;;;;5.50;66.99;102172.50;4955917;28;20031;-88
2022/01/29 09:33:04;;;;;;;6.35;4.03;;;;;;;5.61;66.46;102174.47;4933549;29;20499;-91
2022/01/29 09:35:46;;;;;;;6.90;4.03;;;;;;;5.71;66.26;102177.19;4938403;28;20458;-91
2022/01/29 09:38:22;;;;;;;8.23;4.32;;;;;;;5.70;66.64;102183.13;4930472;29;20031;-91
2022/01/29 09:40:54;;;;;;;5.85;3.97;;;;;;;5.79;66.43;102192.56;4936226;29;20506;-90
2022/01/29 09:43:42;;;;;;;6.15;4.20;;;;;;;5.66;66.92;102191.38;4920602;29;20035;-91
2022/01/29 09:46:18;;;;;;;7.32;4.40;;;;;;;5.12;66.77;102097.19;4965115;28;20519;-90
2022/01/29 09:48:54;;;;;;;5.90;3.72;;;;;;;5.23;66.88;102139.69;4937506;28;20035;-92
2022/01/29 09:51:23;;;;;;;6.63;4.18;;;;;;;5.46;66.61;102152.25;4941471;29;20542;-90
2022/01/29 09:53:51;;;;;;;8.10;4.22;;;;;;;5.59;66.70;102176.00;4916375;29;20054;-89
2022/01/29 09:56:19;;;;;;;6.07;3.88;;;;;;;5.26;66.36;102114.06;4943110;29;20404;-91
2022/01/29 09:58:53;;;;;;;7.05;4.20;;;;;;;5.43;67.42;102164.94;4930805;29;20070;-90
2022/01/29 10:01:31;;;;;;;6.35;4.07;;;;;;;5.33;66.91;102128.53;4950046;28;20058;-91
2022/01/29 10:04:04;;;;;;;6.22;4.10;;;;;;;5.62;67.14;102173.69;4955925;28;20031;-89
2022/01/29 10:06:32;;;;;;;7.13;4.13;;;;;;;5.37;67.04;102126.38;4955419;28;20034;-90
2022/01/29 10:09:46;;;;;;;5.82;3.70;;;;;;;5.74;66.52;102170.47;4939740;28;20038;-90
2022/01/29 10:12:32;;;;;;;6.38;4.10;;;;;;;5.70;66.55;102162.41;4988702;28;20416;-91
2022/01/29 10:18:10;;;;;;;6.47;4.03;;;;;;;5.51;66.47;102127.72;4974212;28;20039;-92
2022/01/29 10:20:35;;;;;;;6.07;3.80;;;;;;;5.54;67.45;102173.72;4923047;29;20031;-93
2022/01/29 10:23:14;;;;;;;7.78;4.50;;;;;;;5.36;66.69;102095.16;4952812;29;20357;-92
2022/01/29 10:25:46;;;;;;;6.75;4.15;;;;;;;5.55;67.72;102158.34;4920861;28;20034;-92
2022/01/29 10:28:50;;;;;;;5.82;4.22;;;;;;;5.62;67.01;102171.09;4924313;28;20020;-92
2022/01/29 10:31:16;;;;;;;6.30;4.28;;;;;;;5.50;66.67;102138.84;4961067;28;20495;-92
2022/01/29 10:33:52;;;;;;;6.10;3.90;;;;;;;5.51;67.33;102140.66;4925899;28;20031;-94
2022/01/29 10:36:55;;;;;;;7.03;3.90;;;;;;;5.78;66.90;102169.97;4943106;28;20274;-93
2022/01/29 10:39:41;;;;;;;5.95;4.05;;;;;;;5.62;67.53;102171.09;4959037;28;20086;-93
2022/01/29 10:42:37;;;;;;;7.30;3.85;;;;;;;5.62;67.61;102172.81;4937249;29;20162;-94
2022/01/29 10:45:09;;;;;;;6.63;3.97;;;;;;;5.73;67.02;102172.13;4952641;29;20455;-94
2022/01/29 10:47:55;;;;;;;5.40;4.00;;;;;;;5.60;67.43;102172.63;4952377;28;20521;-92
2022/01/29 10:50:24;;;;;;;7.72;4.03;;;;;;;5.35;67.37;102114.94;4942837;28;20043;-93
2022/01/29 10:53:18;;;;;;;5.22;3.42;;;;;;;5.62;67.46;102163.34;4945397;29;20475;-94
2022/01/29 10:59:13;;;;;;;6.10;3.75;;;;;;;5.56;67.47;102152.38;4956820;29;20042;-96
2022/01/29 11:02:13;;;;;;;5.75;3.90;;;;;;;5.70;66.93;102169.28;4965900;28;20058;-94
2022/01/29 11:04:45;;;;;;;5.82;4.10;;;;;;;5.69;67.44;102165.78;4925189;29;20035;-96
2022/01/29 11:07:26;;;;;;;7.00;4.15;;;;;;;5.56;67.62;102154.97;4937863;29;20011;-95
2022/01/29 11:10:08;;;;;;;4.63;3.55;;;;;;;5.53;67.40;102144.31;4950396;29;20038;-96
2022/01/29 11:15:53;;;;;;;6.65;3.88;;;;;;;5.79;67.05;102154.59;4955065;29;20050;-96
2022/01/29 11:18:34;;;;;;;6.20;3.72;;;;;;;5.72;67.25;102153.09;4947810;28;20090;-95
2022/01/29 11:21:02;;;;;;;5.00;3.80;;;;;;;4.85;67.15;101994.50;5057359;23;20045;-95
2022/01/29 11:23:40;;;;;;;5.72;3.85;;;;;;;5.49;67.16;102116.28;4988403;28;20045;-94
2022/01/29 11:26:34;;;;;;;6.43;4.03;;;;;;;5.63;67.61;102160.00;5005433;28;20025;-96
2022/01/29 11:29:24;;;;;;;5.45;3.67;;;;;;;5.63;67.65;102149.63;5019740;28;20041;-96
2022/01/29 11:32:33;;;;;;;5.68;3.55;;;;;;;5.87;67.05;102144.97;4983045;28;20057;-95
2022/01/29 11:35:17;;;;;;;;;;;;;;;5.68;67.59;102156.16;5027429;28;20034;-96
2022/01/29 11:38:08;;;;;;;5.03;3.67;;;;;;;5.77;67.58;102161.31;5014378;28;19925;-93
2022/01/29 11:40:56;;;;;;;5.80;3.70;;;;;;;5.62;67.28;102118.38;4998097;28;20037;-92
2022/01/29 11:44:00;;;;;;;5.07;3.80;;;;;;;5.71;67.66;102143.50;4997213;28;20068;-91
2022/01/29 11:46:32;;;;;;;5.90;3.78;;;;;;;5.51;67.70;102117.34;5028556;28;20124;-91
2022/01/29 11:49:17;;;;;;;5.72;3.63;;;;;;;5.38;67.93;102107.50;4996540;28;20045;-89
2022/01/29 11:51:50;;;;;;;6.07;3.88;;;;;;;5.61;67.50;102134.69;4993536;28;20026;-88
2022/01/29 11:54:18;;;;;;;7.32;3.50;;;;;;;5.44;67.19;102076.06;4995468;28;20018;-87
2022/01/29 11:56:47;;;;;;;4.78;3.47;;;;;;;5.74;67.08;102145.47;5012211;28;20036;-89
2022/01/29 11:59:42;;;;;;;5.10;3.53;;;;;;;5.70;67.77;102144.25;5009712;28;20061;-90
2022/01/29 12:02:28;;;;;;;5.05;3.55;;;;;;;5.92;67.10;102146.28;4996886;28;20022;-90
2022/01/29 12:04:56;;;;;;;4.90;3.55;;;;;;;5.92;67.01;102142.00;5012235;28;20477;-92
2022/01/29 12:07:56;;;;;;;6.45;3.60;;;;;;;5.71;66.87;102108.88;5013941;28;20022;-94
2022/01/29 12:14:23;;;;;;;5.63;3.80;;;;;;;5.76;67.74;102148.19;4997850;28;20117;-89
2022/01/29 12:20:29;;;;;;;5.93;3.50;;;;;;;5.85;67.03;102142.22;5003397;28;20092;-88
2022/01/29 12:23:10;;;;;;;4.97;3.65;;;;;;;5.65;66.83;102095.34;5011806;28;20049;-92
2022/01/29 12:25:57;;;;;;;5.50;3.75;;;;;;;5.91;67.15;102144.47;5012793;28;20065;-91
2022/01/29 12:28:34;;;;;;;4.68;3.60;;;;;;;5.82;67.38;102144.53;5001509;28;20029;-92
2022/01/29 12:31:17;;;;;;;5.47;3.80;;;;;;;6.03;66.32;102127.53;5006169;28;20084;-90
2022/01/29 12:33:45;;;;;;;4.93;3.33;;;;;;;5.57;66.70;102080.75;4996048;28;20138;-90
2022/01/29 12:36:51;;;;;;;6.45;3.72;;;;;;;5.98;66.77;102153.78;4998577;28;20052;-91
2022/01/29 12:39:37;;;;;;;6.10;3.95;;;;;;;5.89;66.70;102118.41;5013992;28;20405;-90
2022/01/29 12:42:33;;;;;;;4.47;3.42;;;;;;;5.89;67.34;102156.38;4996588;28;20026;-89
2022/01/29 12:45:38;;;;;;;5.63;3.70;;;;;;;6.18;66.17;102147.88;5014237;28;20022;-93
2022/01/29 12:48:19;;;;;;;5.38;3.67;;;;;;;6.21;65.73;102145.56;5014289;28;20116;-89
2022/01/29 12:51:07;;;;;;;6.15;4.00;;;;;;;6.10;65.66;102122.13;4996904;28;20057;-90
2022/01/29 12:53:33;;;;;;;;;;;;;;;6.05;66.85;102153.59;4999208;28;20084;-88
2022/01/29 12:56:12;;;;;;;5.70;3.38;;;;;;;5.98;66.95;102156.38;5002550;28;19924;-88
2022/01/29 12:58:40;;;;;;;5.10;3.53;;;;;;;5.81;66.85;102103.78;4989634;28;20033;-90
2022/01/29 13:01:10;;;;;;;5.15;3.58;;;;;;;5.62;67.09;102077.81;5004816;28;20695;-89
2022/01/29 13:03:39;;;;;;;6.22;4.00;;;;;;;6.06;65.77;102114.84;5011260;28;20091;-90
2022/01/29 13:06:10;;;;;;;5.38;3.63;;;;;;;6.22;66.17;102155.16;4994977;28;20025;-89
2022/01/29 13:08:39;;;;;;;5.80;3.60;;;;;;;6.26;66.05;102155.59;4991283;28;20460;-89
2022/01/29 13:11:26;;;;;;;5.32;3.33;;;;;;;6.42;65.64;102157.03;4991490;28;20026;-93
2022/01/29 13:13:56;;;;;;;6.00;3.40;;;;;;;6.30;65.71;102149.00;4991979;28;20037;-93
2022/01/29 13:16:29;;;;;;;5.38;3.60;;;;;;;6.15;65.75;102132.03;4992249;28;20038;-91
2022/01/29 13:19:04;;;;;;;5.88;3.90;;;;;;;6.31;65.80;102146.56;4991610;28;20034;-90
2022/01/29 13:21:31;;;;;;;6.20;3.42;;;;;;;6.30;65.65;102143.81;4989171;28;20138;-92
2022/01/29 13:23:57;;;;;;;5.15;3.28;;;;;;;6.22;65.29;102108.47;4975821;28;20520;-93
2022/01/29 13:26:38;;;;;;;5.57;3.85;;;;;;;6.28;65.88;102142.78;4992233;28;20030;-94
2022/01/29 13:29:07;;;;;;;6.40;4.18;;;;;;;6.28;65.65;102150.56;4992167;28;20038;-92
2022/01/29 13:31:57;;;;;;;4.70;3.42;;;;;;;6.49;65.37;102160.31;4975824;28;20514;-92
2022/01/29 13:34:40;;;;;;;5.85;3.50;;;;;;;6.38;65.62;102155.84;4994233;28;20068;-94
2022/01/29 13:37:35;;;;;;;5.30;3.75;;;;;;;6.46;65.69;102164.34;5004719;28;20109;-95
2022/01/29 13:40:05;;;;;;;5.35;3.78;;;;;;;6.15;65.88;102119.06;4991869;28;20441;-93
2022/01/29 13:42:35;;;;;;;5.18;3.78;;;;;;;6.39;65.73;102161.94;4991365;28;20116;-93
2022/01/29 13:45:15;;;;;;;5.28;3.75;;;;;;;6.34;65.73;102147.63;4975713;28;20031;-93
2022/01/29 13:48:13;;;;;;;6.38;3.78;;;;;;;6.44;65.54;102166.78;4991883;28;20026;-92
2022/01/29 13:51:10;;;;;;;4.53;3.25;;;;;;;6.50;65.46;102169.06;4975949;28;20040;-93
2022/01/29 13:54:01;;;;;;;5.47;3.63;;;;;;;6.46;65.58;102162.66;4991697;28;20050;-93
2022/01/29 13:56:31;;;;;;;4.90;3.40;;;;;;;6.45;65.36;102162.50;4997796;28;20398;-93